sensor_id;sensor_type;location;lat;lon;timestamp;temperature;humidity
5196;DHT22;2617;51.006;12.436;2023-07-16T00:04:02;19.70;99.90
5196;DHT22;2617;51.006;12.436;2023-07-16T00:09:04;19.70;99.90
5196;DHT22;2617;51.006;12.436;2023-07-16T00:14:06;19.60;99.90
5196;DHT22;2617;51.006;12.436;2023-07-16T00:19:09;19.50;99.90
5196;DHT22;2617;51.006;12.436;2023-07-16T00:24:09;19.50;99.90
5196;DHT22;2617;51.006;12.436;2023-07-16T00:29:11;19.50;99.90
5196;DHT22;2617;51.006;12.436;2023-07-16T00:34:13;19.40;99.90
5196;DHT22;2617;51.006;12.436;2023-07-16T00:39:14;19.40;99.90
5196;DHT22;2617;51.006;12.436;2023-07-16T00:44:16;19.40;99.90
5196;DHT22;2617;51.006;12.436;2023-07-16T00:49:18;19.40;99.90
5196;DHT22;2617;51.006;12.436;2023-07-16T00:54:20;19.30;99.90
5196;DHT22;2617;51.006;12.436;2023-07-16T00:59:21;19.30;99.90
5196;DHT22;2617;51.006;12.436;2023-07-16T01:04:24;19.30;99.90
5196;DHT22;2617;51.006;12.436;2023-07-16T01:09:27;19.30;99.90
5196;DHT22;2617;51.006;12.436;2023-07-16T01:14:29;19.20;99.90
5196;DHT22;2617;51.006;12.436;2023-07-16T01:19:32;19.30;99.90
5196;DHT22;2617;51.006;12.436;2023-07-16T01:24:51;19.30;99.90
5196;DHT22;2617;51.006;12.436;2023-07-16T01:30:07;19.30;99.90
5196;DHT22;2617;51.006;12.436;2023-07-16T01:35:09;19.20;99.90
5196;DHT22;2617;51.006;12.436;2023-07-16T01:40:11;19.20;99.90
5196;DHT22;2617;51.006;12.436;2023-07-16T01:45:13;19.20;99.90
5196;DHT22;2617;51.006;12.436;2023-07-16T01:50:14;19.10;99.90
5196;DHT22;2617;51.006;12.436;2023-07-16T01:55:16;19.00;99.90
5196;DHT22;2617;51.006;12.436;2023-07-16T02:00:18;19.00;99.90
5196;DHT22;2617;51.006;12.436;2023-07-16T02:05:19;19.00;99.90
5196;DHT22;2617;51.006;12.436;2023-07-16T02:10:21;19.00;99.90
5196;DHT22;2617;51.006;12.436;2023-07-16T02:15:24;19.00;99.90
5196;DHT22;2617;51.006;12.436;2023-07-16T02:20:26;19.00;99.90
5196;DHT22;2617;51.006;12.436;2023-07-16T02:25:27;19.00;99.90
5196;DHT22;2617;51.006;12.436;2023-07-16T02:30:29;19.00;99.90
5196;DHT22;2617;51.006;12.436;2023-07-16T02:35:31;18.90;99.90
5196;DHT22;2617;51.006;12.436;2023-07-16T02:40:33;18.90;99.90
5196;DHT22;2617;51.006;12.436;2023-07-16T02:45:35;18.90;99.90
5196;DHT22;2617;51.006;12.436;2023-07-16T02:50:37;18.90;99.90
5196;DHT22;2617;51.006;12.436;2023-07-16T02:55:38;18.90;99.90
5196;DHT22;2617;51.006;12.436;2023-07-16T03:00:40;18.90;99.90
5196;DHT22;2617;51.006;12.436;2023-07-16T03:05:42;18.90;99.90
5196;DHT22;2617;51.006;12.436;2023-07-16T03:10:43;18.90;99.90
5196;DHT22;2617;51.006;12.436;2023-07-16T03:15:45;18.90;99.90
5196;DHT22;2617;51.006;12.436;2023-07-16T03:20:47;18.90;99.90
5196;DHT22;2617;51.006;12.436;2023-07-16T03:25:50;18.80;99.90
5196;DHT22;2617;51.006;12.436;2023-07-16T03:30:51;18.80;99.90
5196;DHT22;2617;51.006;12.436;2023-07-16T03:35:53;18.90;99.90
5196;DHT22;2617;51.006;12.436;2023-07-16T03:40:54;18.80;99.90
5196;DHT22;2617;51.006;12.436;2023-07-16T03:45:56;18.80;99.90
5196;DHT22;2617;51.006;12.436;2023-07-16T03:50:58;18.80;99.90
5196;DHT22;2617;51.006;12.436;2023-07-16T03:56:00;18.80;99.90
5196;DHT22;2617;51.006;12.436;2023-07-16T04:01:02;18.80;99.90
5196;DHT22;2617;51.006;12.436;2023-07-16T04:06:05;18.90;99.90
5196;DHT22;2617;51.006;12.436;2023-07-16T04:11:07;18.90;99.90
5196;DHT22;2617;51.006;12.436;2023-07-16T04:16:08;18.90;99.90
5196;DHT22;2617;51.006;12.436;2023-07-16T04:21:10;19.00;99.90
5196;DHT22;2617;51.006;12.436;2023-07-16T04:26:12;19.10;99.90
5196;DHT22;2617;51.006;12.436;2023-07-16T04:31:14;19.20;99.90
5196;DHT22;2617;51.006;12.436;2023-07-16T04:36:16;19.30;99.90
5196;DHT22;2617;51.006;12.436;2023-07-16T04:41:18;19.50;99.90
5196;DHT22;2617;51.006;12.436;2023-07-16T04:46:20;19.40;99.90
5196;DHT22;2617;51.006;12.436;2023-07-16T04:51:22;19.40;99.90
5196;DHT22;2617;51.006;12.436;2023-07-16T04:56:24;19.40;99.90
5196;DHT22;2617;51.006;12.436;2023-07-16T05:01:26;19.50;99.90
5196;DHT22;2617;51.006;12.436;2023-07-16T05:06:27;19.60;99.90
5196;DHT22;2617;51.006;12.436;2023-07-16T05:11:29;19.80;99.90
5196;DHT22;2617;51.006;12.436;2023-07-16T05:16:31;19.80;99.90
5196;DHT22;2617;51.006;12.436;2023-07-16T05:21:34;19.80;99.90
5196;DHT22;2617;51.006;12.436;2023-07-16T05:26:35;19.80;99.90
5196;DHT22;2617;51.006;12.436;2023-07-16T05:31:37;19.90;99.90
5196;DHT22;2617;51.006;12.436;2023-07-16T05:36:40;20.20;99.90
5196;DHT22;2617;51.006;12.436;2023-07-16T05:41:40;20.40;99.90
5196;DHT22;2617;51.006;12.436;2023-07-16T05:46:42;20.60;99.90
5196;DHT22;2617;51.006;12.436;2023-07-16T05:51:44;20.90;99.90
5196;DHT22;2617;51.006;12.436;2023-07-16T05:56:46;21.10;99.90
5196;DHT22;2617;51.006;12.436;2023-07-16T06:01:47;21.60;99.90
5196;DHT22;2617;51.006;12.436;2023-07-16T06:06:49;21.90;99.90
5196;DHT22;2617;51.006;12.436;2023-07-16T06:11:51;22.20;99.90
5196;DHT22;2617;51.006;12.436;2023-07-16T06:16:53;22.50;99.90
5196;DHT22;2617;51.006;12.436;2023-07-16T06:21:55;23.00;99.90
5196;DHT22;2617;51.006;12.436;2023-07-16T06:26:57;23.00;99.90
5196;DHT22;2617;51.006;12.436;2023-07-16T06:31:59;23.20;99.90
5196;DHT22;2617;51.006;12.436;2023-07-16T06:37:00;23.60;99.90
5196;DHT22;2617;51.006;12.436;2023-07-16T06:42:02;23.90;99.90
5196;DHT22;2617;51.006;12.436;2023-07-16T06:47:05;23.80;99.90
5196;DHT22;2617;51.006;12.436;2023-07-16T06:52:07;23.80;99.90
5196;DHT22;2617;51.006;12.436;2023-07-16T06:57:08;23.60;99.90
5196;DHT22;2617;51.006;12.436;2023-07-16T07:02:11;23.30;99.90
5196;DHT22;2617;51.006;12.436;2023-07-16T07:07:12;23.40;99.90
5196;DHT22;2617;51.006;12.436;2023-07-16T07:12:14;23.60;99.90
5196;DHT22;2617;51.006;12.436;2023-07-16T07:17:16;23.60;99.90
5196;DHT22;2617;51.006;12.436;2023-07-16T07:22:19;23.80;99.90
5196;DHT22;2617;51.006;12.436;2023-07-16T07:27:20;23.80;99.90
5196;DHT22;2617;51.006;12.436;2023-07-16T07:32:22;24.00;99.90
5196;DHT22;2617;51.006;12.436;2023-07-16T07:37:24;24.00;99.90
5196;DHT22;2617;51.006;12.436;2023-07-16T07:42:26;24.10;99.90
5196;DHT22;2617;51.006;12.436;2023-07-16T07:47:28;24.20;99.90
5196;DHT22;2617;51.006;12.436;2023-07-16T07:52:30;24.20;99.10
5196;DHT22;2617;51.006;12.436;2023-07-16T07:57:31;24.50;98.20
5196;DHT22;2617;51.006;12.436;2023-07-16T08:02:33;24.80;96.30
5196;DHT22;2617;51.006;12.436;2023-07-16T08:07:36;25.20;95.50
5196;DHT22;2617;51.006;12.436;2023-07-16T08:12:37;25.60;93.30
5196;DHT22;2617;51.006;12.436;2023-07-16T08:17:40;25.60;92.80
5196;DHT22;2617;51.006;12.436;2023-07-16T08:22:41;25.20;93.50
5196;DHT22;2617;51.006;12.436;2023-07-16T08:27:43;25.10;93.20
5196;DHT22;2617;51.006;12.436;2023-07-16T08:32:45;25.30;92.60
5196;DHT22;2617;51.006;12.436;2023-07-16T08:37:48;25.40;89.80
5196;DHT22;2617;51.006;12.436;2023-07-16T08:42:50;25.30;89.60
5196;DHT22;2617;51.006;12.436;2023-07-16T08:47:52;25.40;89.30
5196;DHT22;2617;51.006;12.436;2023-07-16T08:52:53;25.50;87.30
5196;DHT22;2617;51.006;12.436;2023-07-16T08:57:57;25.30;88.10
5196;DHT22;2617;51.006;12.436;2023-07-16T09:02:58;25.30;88.00
5196;DHT22;2617;51.006;12.436;2023-07-16T09:07:59;24.90;90.00
5196;DHT22;2617;51.006;12.436;2023-07-16T09:13:01;25.20;88.20
5196;DHT22;2617;51.006;12.436;2023-07-16T09:18:04;25.70;86.20
5196;DHT22;2617;51.006;12.436;2023-07-16T09:23:06;25.70;86.10
5196;DHT22;2617;51.006;12.436;2023-07-16T09:28:08;25.90;78.70
5196;DHT22;2617;51.006;12.436;2023-07-16T09:33:13;25.90;77.70
5196;DHT22;2617;51.006;12.436;2023-07-16T09:38:14;25.50;81.70
5196;DHT22;2617;51.006;12.436;2023-07-16T09:43:16;25.80;80.70
5196;DHT22;2617;51.006;12.436;2023-07-16T09:48:19;26.40;76.90
5196;DHT22;2617;51.006;12.436;2023-07-16T09:53:20;26.30;76.70
5196;DHT22;2617;51.006;12.436;2023-07-16T09:58:22;26.50;77.00
5196;DHT22;2617;51.006;12.436;2023-07-16T10:03:24;26.20;78.10
5196;DHT22;2617;51.006;12.436;2023-07-16T10:08:26;26.20;76.20
5196;DHT22;2617;51.006;12.436;2023-07-16T10:13:27;26.10;75.10
5196;DHT22;2617;51.006;12.436;2023-07-16T10:18:31;26.10;75.80
5196;DHT22;2617;51.006;12.436;2023-07-16T10:23:41;26.00;75.90
5196;DHT22;2617;51.006;12.436;2023-07-16T10:28:42;25.90;75.80
5196;DHT22;2617;51.006;12.436;2023-07-16T10:33:44;25.80;73.20
5196;DHT22;2617;51.006;12.436;2023-07-16T10:38:46;25.80;75.00
5196;DHT22;2617;51.006;12.436;2023-07-16T10:43:47;26.30;74.00
5196;DHT22;2617;51.006;12.436;2023-07-16T10:48:50;27.10;72.50
5196;DHT22;2617;51.006;12.436;2023-07-16T10:53:54;27.00;72.40
5196;DHT22;2617;51.006;12.436;2023-07-16T10:58:53;26.70;72.50
5196;DHT22;2617;51.006;12.436;2023-07-16T11:03:59;26.40;72.30
5196;DHT22;2617;51.006;12.436;2023-07-16T11:09:05;26.30;73.10
5196;DHT22;2617;51.006;12.436;2023-07-16T11:13:59;27.50;75.00
5196;DHT22;2617;51.006;12.436;2023-07-16T11:19:04;28.00;70.20
5196;DHT22;2617;51.006;12.436;2023-07-16T11:24:10;28.30;66.30
5196;DHT22;2617;51.006;12.436;2023-07-16T11:29:13;28.30;66.30
5196;DHT22;2617;51.006;12.436;2023-07-16T11:34:14;28.30;66.10
5196;DHT22;2617;51.006;12.436;2023-07-16T11:39:16;28.20;66.60
5196;DHT22;2617;51.006;12.436;2023-07-16T11:44:19;28.20;67.60
5196;DHT22;2617;51.006;12.436;2023-07-16T11:49:20;28.60;66.40
5196;DHT22;2617;51.006;12.436;2023-07-16T11:54:21;28.80;63.80
5196;DHT22;2617;51.006;12.436;2023-07-16T11:59:23;29.00;65.70
5196;DHT22;2617;51.006;12.436;2023-07-16T12:04:25;29.00;62.10
5196;DHT22;2617;51.006;12.436;2023-07-16T12:09:27;28.60;62.10
5196;DHT22;2617;51.006;12.436;2023-07-16T12:14:28;28.70;61.20
5196;DHT22;2617;51.006;12.436;2023-07-16T12:19:31;29.10;58.70
5196;DHT22;2617;51.006;12.436;2023-07-16T12:24:33;29.10;58.60
5196;DHT22;2617;51.006;12.436;2023-07-16T12:29:34;29.30;58.00
5196;DHT22;2617;51.006;12.436;2023-07-16T12:34:36;29.10;56.40
5196;DHT22;2617;51.006;12.436;2023-07-16T12:39:38;28.90;56.20
5196;DHT22;2617;51.006;12.436;2023-07-16T12:44:39;29.00;58.20
5196;DHT22;2617;51.006;12.436;2023-07-16T12:49:41;29.00;60.00
5196;DHT22;2617;51.006;12.436;2023-07-16T12:54:44;29.40;58.10
5196;DHT22;2617;51.006;12.436;2023-07-16T12:59:45;29.40;58.10
5196;DHT22;2617;51.006;12.436;2023-07-16T13:04:47;29.40;56.70
5196;DHT22;2617;51.006;12.436;2023-07-16T13:09:49;29.50;57.50
5196;DHT22;2617;51.006;12.436;2023-07-16T13:14:51;29.60;55.00
5196;DHT22;2617;51.006;12.436;2023-07-16T13:19:52;29.60;55.00
5196;DHT22;2617;51.006;12.436;2023-07-16T13:24:54;29.70;57.50
5196;DHT22;2617;51.006;12.436;2023-07-16T13:29:56;29.80;54.80
5196;DHT22;2617;51.006;12.436;2023-07-16T13:34:58;29.70;53.80
5196;DHT22;2617;51.006;12.436;2023-07-16T13:39:59;29.70;54.00
5196;DHT22;2617;51.006;12.436;2023-07-16T13:45:01;29.50;55.20
5196;DHT22;2617;51.006;12.436;2023-07-16T13:50:03;29.60;53.70
5196;DHT22;2617;51.006;12.436;2023-07-16T13:55:05;29.50;54.80
5196;DHT22;2617;51.006;12.436;2023-07-16T14:00:08;29.30;54.00
5196;DHT22;2617;51.006;12.436;2023-07-16T14:05:11;29.40;53.70
5196;DHT22;2617;51.006;12.436;2023-07-16T14:10:12;29.00;54.80
5196;DHT22;2617;51.006;12.436;2023-07-16T14:15:14;29.30;55.30
5196;DHT22;2617;51.006;12.436;2023-07-16T14:20:16;29.30;54.50
5196;DHT22;2617;51.006;12.436;2023-07-16T14:25:18;28.80;55.90
5196;DHT22;2617;51.006;12.436;2023-07-16T14:30:19;29.20;54.70
5196;DHT22;2617;51.006;12.436;2023-07-16T14:35:22;29.20;54.50
5196;DHT22;2617;51.006;12.436;2023-07-16T14:40:24;29.20;54.50
5196;DHT22;2617;51.006;12.436;2023-07-16T14:45:26;28.90;55.60
5196;DHT22;2617;51.006;12.436;2023-07-16T14:50:28;28.90;55.60
5196;DHT22;2617;51.006;12.436;2023-07-16T14:55:30;28.70;54.90
5196;DHT22;2617;51.006;12.436;2023-07-16T15:00:32;28.80;54.60
5196;DHT22;2617;51.006;12.436;2023-07-16T15:05:35;28.80;54.40
5196;DHT22;2617;51.006;12.436;2023-07-16T15:10:36;28.80;54.40
5196;DHT22;2617;51.006;12.436;2023-07-16T15:15:38;28.80;54.00
5196;DHT22;2617;51.006;12.436;2023-07-16T15:20:40;28.90;53.50
5196;DHT22;2617;51.006;12.436;2023-07-16T15:25:42;29.00;52.10
5196;DHT22;2617;51.006;12.436;2023-07-16T15:30:43;28.90;52.00
5196;DHT22;2617;51.006;12.436;2023-07-16T15:35:45;29.10;52.80
5196;DHT22;2617;51.006;12.436;2023-07-16T15:40:47;29.20;52.40
5196;DHT22;2617;51.006;12.436;2023-07-16T15:45:49;29.20;50.20
5196;DHT22;2617;51.006;12.436;2023-07-16T15:50:53;29.00;51.80
5196;DHT22;2617;51.006;12.436;2023-07-16T15:55:53;29.00;51.80
5196;DHT22;2617;51.006;12.436;2023-07-16T16:00:55;29.10;50.30
5196;DHT22;2617;51.006;12.436;2023-07-16T16:05:56;29.00;51.00
5196;DHT22;2617;51.006;12.436;2023-07-16T16:10:58;28.80;51.60
5196;DHT22;2617;51.006;12.436;2023-07-16T16:16:00;28.80;51.40
5196;DHT22;2617;51.006;12.436;2023-07-16T16:21:02;28.70;51.00
5196;DHT22;2617;51.006;12.436;2023-07-16T16:26:03;28.70;50.50
5196;DHT22;2617;51.006;12.436;2023-07-16T16:31:06;28.50;51.20
5196;DHT22;2617;51.006;12.436;2023-07-16T16:36:09;28.50;51.20
5196;DHT22;2617;51.006;12.436;2023-07-16T16:41:11;28.50;51.20
5196;DHT22;2617;51.006;12.436;2023-07-16T16:46:13;28.40;50.00
5196;DHT22;2617;51.006;12.436;2023-07-16T16:51:14;28.20;50.30
5196;DHT22;2617;51.006;12.436;2023-07-16T16:56:16;28.00;50.00
5196;DHT22;2617;51.006;12.436;2023-07-16T17:01:18;27.90;50.90
5196;DHT22;2617;51.006;12.436;2023-07-16T17:06:19;27.70;50.70
5196;DHT22;2617;51.006;12.436;2023-07-16T17:11:21;27.70;51.00
5196;DHT22;2617;51.006;12.436;2023-07-16T17:16:23;27.60;51.10
5196;DHT22;2617;51.006;12.436;2023-07-16T17:21:25;27.40;51.10
5196;DHT22;2617;51.006;12.436;2023-07-16T17:26:26;27.30;52.00
5196;DHT22;2617;51.006;12.436;2023-07-16T17:31:28;27.30;51.80
5196;DHT22;2617;51.006;12.436;2023-07-16T17:36:30;27.20;52.50
5196;DHT22;2617;51.006;12.436;2023-07-16T17:41:32;27.20;53.10
5196;DHT22;2617;51.006;12.436;2023-07-16T17:46:34;27.00;53.10
5196;DHT22;2617;51.006;12.436;2023-07-16T17:51:36;26.90;53.10
5196;DHT22;2617;51.006;12.436;2023-07-16T17:56:38;27.10;52.90
5196;DHT22;2617;51.006;12.436;2023-07-16T18:01:39;27.30;52.50
5196;DHT22;2617;51.006;12.436;2023-07-16T18:06:41;27.50;52.60
5196;DHT22;2617;51.006;12.436;2023-07-16T18:11:44;27.50;52.20
5196;DHT22;2617;51.006;12.436;2023-07-16T18:16:46;27.50;52.50
5196;DHT22;2617;51.006;12.436;2023-07-16T18:21:47;27.50;52.90
5196;DHT22;2617;51.006;12.436;2023-07-16T18:26:50;27.30;54.50
5196;DHT22;2617;51.006;12.436;2023-07-16T18:31:52;27.30;54.20
5196;DHT22;2617;51.006;12.436;2023-07-16T18:36:53;27.00;54.70
5196;DHT22;2617;51.006;12.436;2023-07-16T18:41:55;26.70;55.90
5196;DHT22;2617;51.006;12.436;2023-07-16T18:46:57;26.30;57.10
5196;DHT22;2617;51.006;12.436;2023-07-16T18:51:58;25.60;58.70
5196;DHT22;2617;51.006;12.436;2023-07-16T18:57:00;24.90;60.00
5196;DHT22;2617;51.006;12.436;2023-07-16T19:02:02;24.50;62.20
5196;DHT22;2617;51.006;12.436;2023-07-16T19:07:04;24.00;64.00
5196;DHT22;2617;51.006;12.436;2023-07-16T19:12:06;23.70;66.30
5196;DHT22;2617;51.006;12.436;2023-07-16T19:17:13;23.30;67.70
5196;DHT22;2617;51.006;12.436;2023-07-16T19:22:15;23.00;69.50
5196;DHT22;2617;51.006;12.436;2023-07-16T19:27:16;22.70;71.20
5196;DHT22;2617;51.006;12.436;2023-07-16T19:32:19;22.20;74.60
5196;DHT22;2617;51.006;12.436;2023-07-16T19:37:21;22.10;74.40
5196;DHT22;2617;51.006;12.436;2023-07-16T19:42:23;21.90;77.20
5196;DHT22;2617;51.006;12.436;2023-07-16T19:47:24;21.70;79.60
5196;DHT22;2617;51.006;12.436;2023-07-16T19:52:26;21.40;83.00
5196;DHT22;2617;51.006;12.436;2023-07-16T19:57:28;21.10;86.80
5196;DHT22;2617;51.006;12.436;2023-07-16T20:02:30;20.90;89.50
5196;DHT22;2617;51.006;12.436;2023-07-16T20:07:31;20.70;90.70
5196;DHT22;2617;51.006;12.436;2023-07-16T20:12:34;20.50;91.90
5196;DHT22;2617;51.006;12.436;2023-07-16T20:17:36;20.30;92.80
5196;DHT22;2617;51.006;12.436;2023-07-16T20:22:37;20.10;94.10
5196;DHT22;2617;51.006;12.436;2023-07-16T20:27:41;20.00;95.20
5196;DHT22;2617;51.006;12.436;2023-07-16T20:32:41;19.80;96.50
5196;DHT22;2617;51.006;12.436;2023-07-16T20:37:43;19.50;96.70
5196;DHT22;2617;51.006;12.436;2023-07-16T20:42:46;19.50;96.60
5196;DHT22;2617;51.006;12.436;2023-07-16T20:47:48;19.50;96.00
5196;DHT22;2617;51.006;12.436;2023-07-16T20:52:50;19.40;96.60
5196;DHT22;2617;51.006;12.436;2023-07-16T20:57:51;19.30;97.60
5196;DHT22;2617;51.006;12.436;2023-07-16T21:02:54;19.20;99.90
5196;DHT22;2617;51.006;12.436;2023-07-16T21:07:55;19.00;99.90
5196;DHT22;2617;51.006;12.436;2023-07-16T21:12:57;18.80;99.90
5196;DHT22;2617;51.006;12.436;2023-07-16T21:17:59;18.60;99.90
5196;DHT22;2617;51.006;12.436;2023-07-16T21:23:01;18.50;99.90
5196;DHT22;2617;51.006;12.436;2023-07-16T21:28:03;18.50;99.90
5196;DHT22;2617;51.006;12.436;2023-07-16T21:33:07;18.40;99.90
5196;DHT22;2617;51.006;12.436;2023-07-16T21:38:09;18.30;99.90
5196;DHT22;2617;51.006;12.436;2023-07-16T21:43:10;18.30;99.90
5196;DHT22;2617;51.006;12.436;2023-07-16T21:48:12;18.20;99.90
5196;DHT22;2617;51.006;12.436;2023-07-16T21:53:14;18.20;99.90
5196;DHT22;2617;51.006;12.436;2023-07-16T21:58:17;18.00;99.90
5196;DHT22;2617;51.006;12.436;2023-07-16T22:03:18;18.00;99.90
5196;DHT22;2617;51.006;12.436;2023-07-16T22:08:20;17.90;99.90
5196;DHT22;2617;51.006;12.436;2023-07-16T22:13:22;17.80;99.90
5196;DHT22;2617;51.006;12.436;2023-07-16T22:18:24;17.80;99.90
5196;DHT22;2617;51.006;12.436;2023-07-16T22:23:27;17.80;99.90
5196;DHT22;2617;51.006;12.436;2023-07-16T22:28:29;17.80;99.90
5196;DHT22;2617;51.006;12.436;2023-07-16T22:33:31;17.80;99.90
5196;DHT22;2617;51.006;12.436;2023-07-16T22:38:34;17.80;99.90
5196;DHT22;2617;51.006;12.436;2023-07-16T22:43:35;17.70;99.90
5196;DHT22;2617;51.006;12.436;2023-07-16T22:48:37;17.70;99.90
5196;DHT22;2617;51.006;12.436;2023-07-16T22:53:39;17.60;99.90
5196;DHT22;2617;51.006;12.436;2023-07-16T22:58:42;17.50;99.90
5196;DHT22;2617;51.006;12.436;2023-07-16T23:03:44;17.50;99.90
5196;DHT22;2617;51.006;12.436;2023-07-16T23:08:46;17.60;99.90
5196;DHT22;2617;51.006;12.436;2023-07-16T23:13:48;17.50;99.90
5196;DHT22;2617;51.006;12.436;2023-07-16T23:18:50;17.40;99.90
5196;DHT22;2617;51.006;12.436;2023-07-16T23:23:53;17.40;99.90
5196;DHT22;2617;51.006;12.436;2023-07-16T23:28:55;17.40;99.90
5196;DHT22;2617;51.006;12.436;2023-07-16T23:33:56;17.40;99.90
5196;DHT22;2617;51.006;12.436;2023-07-16T23:38:58;17.50;99.90
5196;DHT22;2617;51.006;12.436;2023-07-16T23:44:00;17.70;99.90
5196;DHT22;2617;51.006;12.436;2023-07-16T23:49:02;17.80;99.90
5196;DHT22;2617;51.006;12.436;2023-07-16T23:54:04;17.70;99.90
5196;DHT22;2617;51.006;12.436;2023-07-16T23:59:06;17.60;99.90
